< Typhoon 200116 2001 Season Typhoon 200118 >
Typhoon 200117 (VIPA)
General InformationTrack Information on Google MapsDetailed Wind InformationList of All Images || NewsDisaster Info.ResourceGoogle EarthGE AnimationAtom FeedGeoJSON
Detalied Best Track (Time Zone = UTC)
Year Month Day Hour Lat. Long. Pressure (hPa) Wind (kt) Class Image Chart
2001 9 17 00 22.1 140.0 1004 0 2 Image Chart
2001 9 17 06 22.7 140.2 1004 0 2 Image Chart
2001 9 17 12 23.4 140.2 1004 0 2 Image Chart
2001 9 17 18 24.2 140.0 1004 0 2 Image Chart
2001 9 18 00 25.3 139.7 996 40 3 Image Chart
2001 9 18 06 26.4 139.0 990 45 3 Image Chart
2001 9 18 12 27.7 138.6 985 50 4 Image Chart
2001 9 18 18 28.9 138.2 985 50 4 Image Chart
2001 9 19 00 29.9 138.2 980 55 4 Image Chart
2001 9 19 03 30.4 138.2 980 55 4 Image Chart
2001 9 19 06 30.9 138.3 980 55 4 Image Chart
2001 9 19 09 31.4 138.6 980 55 4 Image Chart
2001 9 19 12 31.8 138.8 980 60 4 Image Chart
2001 9 19 15 32.2 139.1 980 60 4 Image Chart
2001 9 19 18 32.7 139.7 980 60 4 Image Chart
2001 9 19 21 33.1 140.3 980 60 4 Image Chart
2001 9 20 00 33.4 140.7 980 55 4 Image Chart
2001 9 20 03 33.8 141.3 980 55 4 Image Chart
2001 9 20 06 34.3 142.2 980 55 4 Image Chart
2001 9 20 12 34.8 143.7 980 60 4 Image Chart
2001 9 20 18 36.1 145.8 975 65 5 Image Chart
2001 9 21 00 37.7 148.4 980 60 4 Image Chart
2001 9 21 06 39.9 152.1 985 55 4 Image Chart
2001 9 21 12 43.1 157.4 992 0 6 Image Chart
2001 9 21 18 46.8 160.6 996 0 6 Image Chart
2001 9 22 00 49.0 162.9 996 0 6 Image Chart
2001 9 22 06 51.2 169.3 996 0 6 Image Chart
Japan Meteorological Agency Best Track Data | Correction Date : 2002-01-24
< Typhoon 200116 2001 Season Typhoon 200118 >

Help